ADDS METAR Data INFO
IDs: Format: Raw Decoded Include TAF

Data at: 1132 UTC 29 May 2017

KLZZ 291115Z AUTO 00000KT 7SM OVC006 22/21 A2999 RMK AO2 T02150210
KLZZ 291055Z AUTO 03003KT 7SM OVC008 22/21 A2999 RMK AO2 T02150210
KLZZ 291035Z AUTO 04003KT 10SM OVC008 22/21 A3000 RMK AO2 T02150210
KLZZ 291015Z AUTO 04004KT 10SM OVC008 22/21 A3000 RMK AO2 T02150210
KLZZ 290955Z AUTO 00000KT 7SM BKN010 BKN020 BKN026 21/21 A3000 RMK AO2 T02140209
KLZZ 290935Z AUTO 00000KT 10SM SCT010 SCT022 SCT026 20/20 A2999 RMK AO2 T02000195
KLZZ 290915Z AUTO 00000KT 10SM SCT018 BKN023 21/20 A3000 RMK AO2 T02060201
KLZZ 290855Z AUTO 00000KT 10SM SCT015 20/20 A2998 RMK AO2 60001 T02000195
KLZZ 290835Z AUTO 00000KT 10SM CLR 21/21 A2998 RMK AO2 T02110206
KLZZ 290815Z AUTO 36003KT 10SM CLR 22/21 A2998 RMK AO2 T02150210
KLZZ 290755Z AUTO 35006KT 10SM CLR 22/21 A2997 RMK AO2 P0001 T02150210
KLZZ 290735Z AUTO 35005KT 10SM CLR 22/21 A2998 RMK AO2 LTG DSNT SE P0001 T02150210
KLZZ 290715Z AUTO 35003KT 10SM CLR 21/21 A2999 RMK AO2 P0001 T02140209
KLZZ 290655Z AUTO 01003KT 10SM CLR 22/21 A2999 RMK AO2 T02150210
KLZZ 290635Z AUTO 02003KT 7SM CLR 22/21 A2999 RMK AO2 T02150210
KLZZ 290615Z AUTO 00000KT 5SM BR CLR 21/21 A3000 RMK AO2 T02100205
KLZZ 290555Z AUTO 00000KT 10SM CLR 22/21 A3001 RMK AO2 60143 T02150210 10242 20186
KLZZ 290535Z AUTO 00000KT 10SM SCT009 SCT013 22/21 A3001 RMK AO2 T02150210
KLZZ 290515Z AUTO 01004KT 10SM SCT009 SCT013 22/21 A3000 RMK AO2 T02150210
KLZZ 290455Z AUTO 00000KT 10SM SCT008 22/21 A3000 RMK AO2 LTG DSNT SW T02150210
KLZZ 290435Z AUTO 00000KT 10SM SCT008 SCT090 BKN120 22/21 A3000 RMK AO2 T02150210
KLZZ 290415Z AUTO 01003KT 10SM -RA SCT012 SCT060 BKN120 22/21 A3001 RMK AO2 T02150210
KLZZ 290355Z AUTO 03004KT 10SM -RA BKN016 BKN060 BKN070 22/21 A3002 RMK AO2 P0001 T02150210
KLZZ 290335Z AUTO 29006KT 10SM VCTS SCT012 OVC018 22/21 A3004 RMK AO2 LTG DSNT E AND W T02150210
KLZZ 290315Z AUTO 01006KT 10SM -VCTSRA BKN012 BKN120 20/20 A3000 RMK AO2 LTG DSNT E SE AND W T02000195
KLZZ 290255Z AUTO 10005KT 10SM -TSRA SCT060 SCT080 BKN120 20/20 A2997 RMK AO2 LTG DSNT ALQS P0003 60142 T02000195
KLZZ 290235Z AUTO 02005KT 10SM -TSRA SCT035 BKN070 OVC110 20/19 A3000 RMK AO2 LTG DSNT ALQS P0002 T02000192
KLZZ 290215Z AUTO 25005KT 10SM -TSRA SCT030 BKN047 OVC120 20/19 A2999 RMK AO2 LTG DSNT ALQS P0002 T02000191
KLZZ 290155Z AUTO 33003KT 10SM -RA OVC120 20/19 A2998 RMK AO2 LTG DSNT ALQS P0002 T02000190
KLZZ 290135Z AUTO 32007G15KT 10SM -TSRA SCT070 BKN090 BKN120 20/19 A2996 RMK AO2 LTG DSNT ALQS P0001 T02000190
KLZZ 290115Z AUTO 36014G17KT 10SM -TSRA SCT045 SCT060 OVC090 20/19 A2993 RMK AO2 LTG DSNT ALQS P0001 T01980185
KLZZ 290055Z AUTO 33010G15KT 7SM -TSRA SCT008 BKN028 OVC055 20/18 A2996 RMK AO2 LTG DSNT ALQS P0137 T02000184
KLZZ 290035Z AUTO 02014G18KT 3/4SM +TSRA OVC005 19/18 A2997 RMK AO2 LTG DSNT ALQS P0122 T01860177
KLZZ 290015Z AUTO 34016G25KT 320V020 10SM TSRA 24/23 A2998 RMK AO2 LTG DSNT ALQS P0006 T02410226
KLZZ 282355Z AUTO 03014G21KT 10SM -TSRA BKN021 BKN025 BKN034 24/23 A2986 RMK AO2 LTG DSNT ALQS T02420226 10286 20242
KLZZ 282335Z AUTO 03007KT 10SM -VCTSRA BKN021 BKN025 24/22 A2989 RMK AO2 LTG DSNT ALQS T02420222
KLZZ 282315Z AUTO 04006KT 10SM SCT024 24/22 A2992 RMK AO2 LTG DSNT ALQS T02420220
KLZZ 282255Z AUTO 02005KT 10SM SCT029 SCT041 SCT065 24/22 A2992 RMK AO2 LTG DSNT SE THRU SW T02420220
KLZZ 282235Z AUTO 02008KT 10SM VCTS SCT019 SCT033 BKN041 24/22 A2994 RMK AO2 LTG DSNT E THRU S T02420217
KLZZ 282215Z AUTO 01008G14KT 10SM VCTS SCT014 SCT036 BKN065 24/22 A2992 RMK AO2 LTG DSNT E THRU SW T02420217
KLZZ 282155Z AUTO 01009G17KT 10SM SCT016 BKN029 BKN039 24/22 A2992 RMK AO2 LTG DSNT E THRU S T02420217
KLZZ 282135Z AUTO 01012G19KT 10SM VCTS BKN016 BKN029 OVC046 24/22 A2992 RMK AO2 LTG DSNT E THRU SW T02420215
KLZZ 282115Z AUTO 36013G19KT 10SM SCT016 BKN029 OVC037 25/22 A2994 RMK AO2 T02520223
KLZZ 282055Z AUTO 36011G19KT 10SM BKN029 BKN035 26/22 A2994 RMK AO2 LTG DSNT NE T02560220
KLZZ 282035Z AUTO 01013G19KT 10SM SCT029 BKN037 27/23 A2995 RMK AO2 T02700230
KLZZ 282015Z AUTO 36011G18KT 10SM SCT021 OVC027 27/23 A2994 RMK AO2 T02700230
KLZZ 281955Z AUTO 36011G15KT 10SM BKN023 OVC029 27/23 A2994 RMK AO2 T02700230
KLZZ 281935Z AUTO 36010G14KT 10SM OVC028 28/23 A2994 RMK AO2 T02790232
KLZZ 281915Z AUTO 36009KT 320V020 10SM BKN028 OVC034 29/23 A2994 RMK AO2 T02850233
KLZZ 281855Z AUTO 35008KT 330V030 10SM OVC030 29/23 A2994 RMK AO2 LTG DSNT NW T02850230
KLZZ 281835Z AUTO 34006KT 10SM BKN028 29/23 A2994 RMK AO2 T02850230
KLZZ 281815Z AUTO 02006KT 10SM BKN026 29/23 A2994 RMK AO2 T02850229
KLZZ 281755Z AUTO 35007KT 10SM BKN024 28/23 A2994 RMK AO2 T02820227 10285 20242
KLZZ 281735Z AUTO 01007KT 10SM SCT022 BKN034 28/23 A2995 RMK AO2 T02770225
KLZZ 281715Z AUTO 36008KT 10SM SCT029 BKN034 28/23 A2994 RMK AO2 T02770225
KLZZ 281655Z AUTO 01008KT 10SM SCT023 OVC030 28/23 A2994 RMK AO2 T02750226
KLZZ 281635Z AUTO 36008KT 10SM BKN023 OVC032 28/23 A2994 RMK AO2 T02760231
KLZZ 281615Z AUTO 36008KT 10SM BKN023 BKN028 28/23 A2993 RMK AO2 T02770231
KLZZ 281555Z AUTO 01006KT 10SM OVC023 27/24 A2992 RMK AO2 T02740235
KLZZ 281535Z AUTO 00000KT 10SM OVC023 29/25 A2992 RMK AO2 T02850245
KLZZ 281515Z AUTO 00000KT 10SM BKN021 29/25 A2991 RMK AO2 T02850245
KLZZ 281455Z AUTO 27003KT 10SM SCT021 28/24 A2991 RMK AO2 T02780241
KLZZ 281435Z AUTO 30003KT 10SM CLR 28/24 A2991 RMK AO2 T02770241
KLZZ 281415Z AUTO 21003KT 10SM CLR 27/24 A2990 RMK AO2 T02700239
KLZZ 281355Z AUTO 26003KT 10SM CLR 27/24 A2989 RMK AO2 T02700242
KLZZ 281335Z AUTO 22003KT 10SM SCT090 26/23 A2989 RMK AO2 T02580234
KLZZ 281315Z AUTO 25004KT 10SM SCT090 26/24 A2990 RMK AO2 T02560236
KLZZ 281255Z AUTO 00000KT 10SM SCT070 OVC080 24/23 A2991 RMK AO2 T02420227
KLZZ 281235Z AUTO 03003KT 10SM SCT070 OVC080 24/23 A2990 RMK AO2 T02420230
KLZZ 281215Z AUTO 36004KT 10SM BKN070 BKN080 24/23 A2990 RMK AO2 T02420230
KLZZ 281155Z AUTO 35007KT 7SM CLR 24/23 A2989 RMK AO2 T02420228 10270 20242
KLZZ 281135Z AUTO 25003KT 5SM BR CLR 24/23 A2987 RMK AO2 T02420227
KLZZ 281115Z AUTO 00000KT 7SM CLR 24/23 A2984 RMK AO2 T02420226
KLZZ 281055Z AUTO 22008KT 5SM BR CLR 24/23 A2983 RMK AO2 T02420225
KLZZ 281035Z AUTO 21007KT 5SM BR CLR 24/23 A2982 RMK AO2 T02420226
KLZZ 281015Z AUTO 22005KT 7SM CLR 24/23 A2982 RMK AO2 LTG DSNT NE T02420228
KLZZ 280955Z AUTO 20004KT 7SM CLR 24/23 A2982 RMK AO2 T02420228
KLZZ 280935Z AUTO 21004KT 7SM CLR 24/23 A2981 RMK AO2 T02420226
KLZZ 280915Z AUTO 21006KT 7SM CLR 24/23 A2981 RMK AO2 T02420225
KLZZ 280855Z AUTO 22005KT 7SM CLR 24/23 A2981 RMK AO2 T02420226
KLZZ 280835Z AUTO 22007KT 7SM CLR 24/23 A2981 RMK AO2 T02420225
KLZZ 280815Z AUTO 22007KT 7SM CLR 25/23 A2981 RMK AO2 T02500230
KLZZ 280755Z AUTO 21008G14KT 7SM CLR 26/24 A2981 RMK AO2 T02560235
KLZZ 280735Z AUTO 20007KT 7SM CLR 26/24 A2981 RMK AO2 T02560236
KLZZ 280715Z AUTO 21007KT 10SM CLR 26/24 A2982 RMK AO2 T02560235
KLZZ 280655Z AUTO 20007KT 10SM VCTS CLR 26/24 A2981 RMK AO2 T02560235
KLZZ 280635Z AUTO 19004KT 10SM CLR 26/24 A2982 RMK AO2 T02570235
KLZZ 280615Z AUTO 18007KT 10SM VCTS CLR 26/24 A2982 RMK AO2 LTG DSNT E T02630242
KLZZ 280555Z AUTO 18006KT 10SM CLR 27/25 A2982 RMK AO2 T02700247 10326 20270 403260242
KLZZ 280535Z AUTO 17005KT 10SM CLR 27/25 A2983 RMK AO2 T02700246
KLZZ 280515Z AUTO 19009KT 10SM CLR 27/25 A2984 RMK AO2 LTG DSNT S T02700245
KLZZ 280455Z AUTO 19007G15KT 10SM CLR 27/24 A2984 RMK AO2 LTG DSNT SW AND W T02700242
KLZZ 280435Z AUTO 19009KT 10SM CLR 27/24 A2984 RMK AO2 LTG DSNT SW T02720242
KLZZ 280415Z AUTO 18008KT 10SM CLR 28/25 A2985 RMK AO2 T02770245
KLZZ 280355Z AUTO 18008KT 10SM CLR 28/24 A2985 RMK AO2 T02770242
KLZZ 280335Z AUTO 17004KT 10SM CLR 28/24 A2985 RMK AO2 T02770240
KLZZ 280315Z AUTO 17006KT 10SM CLR 28/24 A2984 RMK AO2 T02840243
KLZZ 280155Z AUTO 16005KT 10SM CLR 29/25 A2982 RMK AO2 T02920245
KLZZ 280135Z AUTO 15005KT 10SM CLR 30/25 A2982 RMK AO2 T02980247
KLZZ 280115Z AUTO 15003KT 10SM CLR 31/26 A2981 RMK AO2 T03120257
KLZZ 280055Z AUTO 18005KT 10SM CLR 33/26 A2981 RMK AO2 T03260264
KLZZ 280035Z AUTO 17005KT 10SM CLR 33/26 A2980 RMK AO2 T03260258
KLZZ 280015Z AUTO 18006KT 10SM CLR 33/26 A2980 RMK AO2 T03260257
KLZZ 272355Z AUTO 19006KT 7SM CLR 33/26 A2980 RMK AO2 T03260256 10326 20271
KLZZ 272335Z AUTO 18008KT 7SM CLR 33/26 A2981 RMK AO2 T03260259


Page loaded:  11:32 UTC  |   04:32 AM Pacific  |   05:32 AM Mountain  |   06:32 AM Central  |   07:32 AM Eastern

 

ADVISORIES

FORECASTS

FORECASTS

OBSERVATIONS

USER TOOLS

ABOUT US